createdAt,value
2018-04-18T00:00:10.333Z,99.99
2018-04-18T00:01:32.219Z,99.99
2018-04-18T00:02:54.029Z,99.99
2018-04-18T00:04:15.831Z,99.99
2018-04-18T00:05:37.890Z,99.99
2018-04-18T00:06:59.436Z,99.99
2018-04-18T00:08:21.239Z,99.99
2018-04-18T00:09:43.041Z,99.99
2018-04-18T00:11:04.566Z,99.99
2018-04-18T00:12:26.627Z,99.99
2018-04-18T00:13:48.696Z,99.99
2018-04-18T00:15:10.766Z,99.99
2018-04-18T00:16:32.620Z,99.99
2018-04-18T00:17:54.698Z,99.99
2018-04-18T00:19:16.538Z,99.99
2018-04-18T00:20:38.597Z,99.99
2018-04-18T00:22:00.425Z,99.99
2018-04-18T00:23:22.224Z,99.99
2018-04-18T00:24:43.748Z,99.99
2018-04-18T00:26:05.805Z,99.99
2018-04-18T00:27:27.874Z,99.99
2018-04-18T00:28:49.948Z,99.99
2018-04-18T00:30:11.739Z,99.99
2018-04-18T00:31:33.602Z,99.99
2018-04-18T00:32:55.682Z,99.99
2018-04-18T00:34:17.482Z,99.99
2018-04-18T00:35:39.272Z,99.99
2018-04-18T00:37:01.324Z,99.99
2018-04-18T00:38:22.911Z,99.99
2018-04-18T00:39:44.980Z,99.99
2018-04-18T00:41:07.043Z,99.99
2018-04-18T00:42:28.832Z,99.99
2018-04-18T00:43:50.625Z,99.99
2018-04-18T00:45:12.427Z,99.99
2018-04-18T00:46:34.255Z,99.99
2018-04-18T00:47:56.320Z,99.99
2018-04-18T00:49:18.127Z,99.99
2018-04-18T00:50:39.913Z,99.99
2018-04-18T00:52:01.449Z,99.99
2018-04-18T00:53:23.519Z,99.99
2018-04-18T00:54:45.039Z,99.99
2018-04-18T00:56:07.120Z,99.99
2018-04-18T00:57:29.166Z,99.99
2018-04-18T00:58:50.717Z,99.99
2018-04-18T01:00:12.793Z,99.99
2018-04-18T01:01:34.603Z,99.99
2018-04-18T01:02:55.871Z,99.99
2018-04-18T01:04:17.668Z,99.99
2018-04-18T01:05:39.736Z,99.99
2018-04-18T01:07:01.832Z,99.99
2018-04-18T01:08:23.364Z,99.99
2018-04-18T01:09:45.434Z,99.99
2018-04-18T01:11:07.485Z,99.99
2018-04-18T01:12:29.552Z,99.99
2018-04-18T01:13:51.356Z,99.99
2018-04-18T01:15:12.896Z,99.99
2018-04-18T01:16:34.960Z,99.99
2018-04-18T01:17:56.754Z,99.99
2018-04-18T01:19:18.291Z,99.99
2018-04-18T01:20:39.829Z,99.99
2018-04-18T01:22:01.622Z,99.99
2018-04-18T01:23:23.413Z,99.99
2018-04-18T01:24:45.241Z,99.99
2018-04-18T01:26:06.761Z,99.99
2018-04-18T01:27:28.810Z,99.99
2018-04-18T01:28:50.332Z,99.99
2018-04-18T01:30:12.389Z,99.99
2018-04-18T01:31:33.916Z,99.99
2018-04-18T01:32:55.459Z,99.99
2018-04-18T01:34:16.990Z,99.99
2018-04-18T01:35:38.789Z,99.99
2018-04-18T01:37:00.590Z,99.99
2018-04-18T01:38:22.392Z,99.99
2018-04-18T01:39:44.444Z,99.99
2018-04-18T01:41:05.715Z,99.99
2018-04-18T01:42:27.767Z,99.99
2018-04-18T01:43:49.564Z,99.99
2018-04-18T01:45:11.356Z,99.99
2018-04-18T01:46:33.405Z,99.99
2018-04-18T01:47:54.960Z,99.99
2018-04-18T01:49:17.015Z,99.99
2018-04-18T01:50:39.061Z,99.99
2018-04-18T01:52:01.121Z,99.99
2018-04-18T01:53:23.173Z,99.99
2018-04-18T01:54:44.706Z,99.99
2018-04-18T01:56:06.500Z,99.99
2018-04-18T01:57:28.027Z,99.99
2018-04-18T01:58:50.087Z,99.99
2018-04-18T02:00:11.883Z,99.99
2018-04-18T02:01:33.737Z,99.99
2018-04-18T02:02:55.268Z,99.99
2018-04-18T02:04:17.059Z,99.99
2018-04-18T02:05:38.586Z,99.99
2018-04-18T02:07:00.396Z,99.99
2018-04-18T02:08:22.185Z,99.99
2018-04-18T02:09:43.989Z,99.99
2018-04-18T02:11:05.792Z,99.99
2018-04-18T02:12:27.852Z,99.99
2018-04-18T02:13:49.642Z,99.99
2018-04-18T02:15:11.439Z,99.99
2018-04-18T02:16:33.484Z,99.99
2018-04-18T02:17:55.283Z,99.99
2018-04-18T02:19:16.557Z,99.99
2018-04-18T02:20:38.343Z,99.99
2018-04-18T02:22:00.142Z,99.99
2018-04-18T02:23:22.194Z,99.99
2018-04-18T02:24:44.268Z,99.99
2018-04-18T02:26:06.080Z,99.99
2018-04-18T02:27:28.127Z,99.99
2018-04-18T02:28:49.921Z,99.99
2018-04-18T02:30:12.001Z,99.99
2018-04-18T02:31:33.806Z,99.99
2018-04-18T02:32:55.595Z,99.99
2018-04-18T02:34:17.658Z,99.99
2018-04-18T02:35:39.725Z,99.99
2018-04-18T02:37:01.787Z,99.99
2018-04-18T02:38:23.590Z,99.99
2018-04-18T02:39:45.136Z,99.99
2018-04-18T02:41:07.193Z,99.99
2018-04-18T02:42:29.242Z,99.99
2018-04-18T02:43:51.311Z,99.99
2018-04-18T02:45:13.138Z,99.99
2018-04-18T02:46:34.954Z,99.99
2018-04-18T02:47:56.762Z,99.99
2018-04-18T02:49:18.828Z,99.99
2018-04-18T02:50:40.881Z,99.99
2018-04-18T02:52:02.960Z,99.99
2018-04-18T02:53:24.508Z,99.99
2018-04-18T02:54:46.337Z,99.99
2018-04-18T02:56:08.426Z,99.99
2018-04-18T02:57:30.228Z,99.99
2018-04-18T02:58:51.774Z,99.99
2018-04-18T03:00:13.587Z,99.99
2018-04-18T03:01:35.388Z,99.99
2018-04-18T03:02:57.446Z,99.99
2018-04-18T03:04:18.987Z,99.99
2018-04-18T03:05:41.047Z,99.99
2018-04-18T03:07:02.893Z,99.99
2018-04-18T03:08:24.432Z,99.99
2018-04-18T03:09:46.238Z,99.99
2018-04-18T03:11:08.315Z,99.99
2018-04-18T03:12:29.865Z,99.99
2018-04-18T03:13:51.932Z,99.99
2018-04-18T03:15:13.994Z,99.99
2018-04-18T03:16:35.777Z,99.99
2018-04-18T03:17:57.571Z,99.99
2018-04-18T03:19:19.379Z,99.99
2018-04-18T03:20:41.179Z,99.99
2018-04-18T03:22:02.967Z,99.99
2018-04-18T03:23:24.759Z,99.99
2018-04-18T03:24:46.550Z,99.99
2018-04-18T03:26:08.380Z,99.99
2018-04-18T03:27:30.438Z,99.99
2018-04-18T03:28:52.500Z,99.99
2018-04-18T03:30:14.558Z,99.99
2018-04-18T03:31:36.366Z,99.99
2018-04-18T03:32:58.439Z,99.99
2018-04-18T03:34:20.521Z,99.99
2018-04-18T03:35:42.324Z,99.99
2018-04-18T03:37:04.144Z,99.99
2018-04-18T03:38:25.931Z,99.99
2018-04-18T03:39:47.987Z,99.99
2018-04-18T03:41:10.041Z,99.99
2018-04-18T03:42:31.829Z,99.99
2018-04-18T03:43:53.612Z,99.99
2018-04-18T03:45:15.676Z,99.99
2018-04-18T03:46:37.460Z,99.99
2018-04-18T03:47:59.243Z,99.99
2018-04-18T03:49:21.299Z,99.99
2018-04-18T03:50:43.370Z,99.99
2018-04-18T03:52:05.152Z,99.99
2018-04-18T03:53:26.699Z,99.99
2018-04-18T03:54:48.770Z,99.99
2018-04-18T03:56:10.836Z,99.99
2018-04-18T03:57:32.894Z,99.99
2018-04-18T03:58:54.948Z,99.99
2018-04-18T04:00:16.750Z,99.99
2018-04-18T04:01:38.566Z,99.99
2018-04-18T04:03:00.636Z,99.99
2018-04-18T04:04:22.445Z,99.99
2018-04-18T04:05:44.242Z,99.99
2018-04-18T04:07:06.049Z,99.99
2018-04-18T04:08:27.877Z,99.99
2018-04-18T04:09:49.951Z,99.99
2018-04-18T04:11:11.810Z,99.99
2018-04-18T04:12:33.611Z,99.99
2018-04-18T04:13:55.425Z,99.99
2018-04-18T04:15:17.231Z,99.99
2018-04-18T04:16:39.080Z,99.99
2018-04-18T04:18:01.128Z,99.99
2018-04-18T04:19:23.199Z,99.99
2018-04-18T04:20:44.996Z,99.99
2018-04-18T04:22:07.051Z,99.99
2018-04-18T04:23:28.848Z,99.99
2018-04-18T04:24:50.724Z,99.99
2018-04-18T04:26:12.531Z,99.99
2018-04-18T04:27:34.347Z,99.99
2018-04-18T04:28:56.408Z,99.99
2018-04-18T04:30:17.950Z,99.99
2018-04-18T04:31:40.076Z,99.99
2018-04-18T04:33:01.612Z,99.99
2018-04-18T04:34:23.418Z,99.99
2018-04-18T04:35:45.488Z,99.99
2018-04-18T04:37:06.772Z,99.99
2018-04-18T04:38:28.565Z,99.99
2018-04-18T04:39:50.626Z,99.99
2018-04-18T04:41:12.156Z,99.99
2018-04-18T04:42:33.953Z,99.99
2018-04-18T04:43:55.745Z,99.99
2018-04-18T04:45:17.284Z,99.99
2018-04-18T04:46:39.346Z,99.99
2018-04-18T04:48:00.895Z,99.99
2018-04-18T04:49:22.452Z,99.99
2018-04-18T04:50:44.243Z,99.99
2018-04-18T04:52:06.051Z,99.99
2018-04-18T04:53:27.848Z,99.99
2018-04-18T04:54:49.907Z,99.99
2018-04-18T04:56:11.435Z,99.99
2018-04-18T04:57:33.576Z,99.99
2018-04-18T04:58:55.384Z,99.99
2018-04-18T05:00:17.460Z,99.99
2018-04-18T05:01:39.516Z,99.99
2018-04-18T05:03:01.326Z,99.99
2018-04-18T05:04:23.401Z,99.99
2018-04-18T05:05:45.484Z,99.99
2018-04-18T05:07:07.305Z,99.99
2018-04-18T05:08:29.087Z,99.99
2018-04-18T05:09:51.144Z,99.99
2018-04-18T05:11:12.704Z,99.99
2018-04-18T05:12:34.234Z,99.99
2018-04-18T05:13:56.077Z,99.99
2018-04-18T05:15:17.624Z,99.99
2018-04-18T05:16:39.675Z,99.99
2018-04-18T05:18:01.492Z,99.99
2018-04-18T05:19:23.554Z,99.99
2018-04-18T05:20:45.600Z,99.99
2018-04-18T05:22:07.658Z,99.99
2018-04-18T05:23:29.456Z,99.99
2018-04-18T05:24:51.549Z,99.99
2018-04-18T05:26:13.360Z,99.99
2018-04-18T05:27:35.444Z,99.99
2018-04-18T05:28:57.244Z,99.99
2018-04-18T05:30:19.327Z,99.99
2018-04-18T05:31:41.126Z,99.99
2018-04-18T05:33:03.193Z,99.99
2018-04-18T05:34:25.022Z,99.99
2018-04-18T05:35:46.829Z,99.99
2018-04-18T05:37:08.625Z,99.99
2018-04-18T05:38:30.843Z,99.99
2018-04-18T05:39:52.913Z,99.99
2018-04-18T05:41:15.014Z,99.99
2018-04-18T05:42:36.820Z,99.99
2018-04-18T05:43:58.636Z,98
2018-04-18T05:45:20.175Z,94.73
2018-04-18T05:46:42.236Z,91.16
2018-04-18T05:48:04.041Z,88.06
2018-04-18T05:49:26.113Z,84.72
2018-04-18T05:50:47.912Z,83.03
2018-04-18T05:52:09.806Z,81.62
2018-04-18T05:53:31.610Z,79.91
2018-04-18T05:54:53.689Z,78.02
2018-04-18T05:56:15.486Z,76.02
2018-04-18T05:57:37.069Z,74.16
2018-04-18T05:58:59.190Z,72.51
2018-04-18T06:00:20.478Z,71.09
2018-04-18T06:01:42.546Z,70.54
2018-04-18T06:03:04.359Z,70.29
2018-04-18T06:04:26.170Z,68.63
2018-04-18T06:05:48.015Z,69.41
2018-04-18T06:07:10.109Z,70.03
2018-04-18T06:08:32.198Z,69.28
2018-04-18T06:09:54.010Z,67.63
2018-04-18T06:11:16.208Z,66.72
2018-04-18T06:12:37.404Z,64.69
2018-04-18T06:13:59.229Z,63.45
2018-04-18T06:15:21.308Z,62.22
2018-04-18T06:16:43.412Z,61.3
2018-04-18T06:18:05.217Z,60.55
2018-04-18T06:19:27.074Z,59.22
2018-04-18T06:20:48.626Z,58.37
2018-04-18T06:22:10.702Z,57.98
2018-04-18T06:23:32.522Z,57.49
2018-04-18T06:24:54.336Z,57.81
2018-04-18T06:26:16.156Z,58.17
2018-04-18T06:27:38.228Z,57.62
2018-04-18T06:29:00.314Z,56.84
2018-04-18T06:30:22.400Z,55.81
2018-04-18T06:31:44.222Z,56.2
2018-04-18T06:33:06.033Z,56.01
2018-04-18T06:34:27.843Z,55.81
2018-04-18T06:35:49.650Z,55.91
2018-04-18T06:37:11.461Z,55.81
2018-04-18T06:38:33.276Z,55.03
2018-04-18T06:39:54.571Z,54.38
2018-04-18T06:41:16.467Z,54.67
2018-04-18T06:42:38.556Z,53.42
2018-04-18T06:44:00.369Z,52.54
2018-04-18T06:45:22.460Z,52.93
2018-04-18T06:46:44.528Z,52.67
2018-04-18T06:48:06.339Z,52.59
2018-04-18T06:49:28.411Z,51.61
2018-04-18T06:50:50.502Z,50.85
2018-04-18T06:52:12.584Z,51.54
2018-04-18T06:53:34.654Z,51.44
2018-04-18T06:54:56.724Z,51.93
2018-04-18T06:56:18.831Z,51.54
2018-04-18T06:57:40.470Z,50.59
2018-04-18T06:59:02.309Z,50.49
2018-04-18T07:00:23.606Z,49.92
2018-04-18T07:01:45.165Z,50.12
2018-04-18T07:03:06.999Z,48.96
2018-04-18T07:04:28.863Z,48.86
2018-04-18T07:05:50.953Z,49.07
2018-04-18T07:07:12.783Z,48.79
2018-04-18T07:08:34.340Z,48.01
2018-04-18T07:09:56.435Z,47.71
2018-04-18T07:11:18.320Z,48.67
2018-04-18T07:12:40.382Z,48.11
2018-04-18T07:14:02.467Z,48.11
2018-04-18T07:15:23.756Z,47.91
2018-04-18T07:16:45.061Z,48.4
2018-04-18T07:18:07.171Z,47.44
2018-04-18T07:19:29.256Z,46.58
2018-04-18T07:20:51.348Z,46.97
2018-04-18T07:22:12.900Z,47.56
2018-04-18T07:23:35.002Z,46.28
2018-04-18T07:24:57.091Z,46.28
2018-04-18T07:26:19.202Z,47.56
2018-04-18T07:27:41.398Z,47.44
2018-04-18T07:29:03.537Z,47.15
2018-04-18T07:30:25.619Z,46.06
2018-04-18T07:31:47.705Z,47.17
2018-04-18T07:33:09.794Z,46.78
2018-04-18T07:34:31.095Z,46.68
2018-04-18T07:35:52.913Z,46.88
2018-04-18T07:37:14.738Z,46.19
2018-04-18T07:38:36.815Z,46.56
2018-04-18T07:39:58.635Z,47.2
2018-04-18T07:41:20.547Z,47.99
2018-04-18T07:42:42.631Z,48.33
2018-04-18T07:44:04.705Z,48.35
2018-04-18T07:45:26.784Z,47.67
2018-04-18T07:46:48.937Z,47.67
2018-04-18T07:48:10.764Z,47.96
2018-04-18T07:49:32.334Z,49.92
2018-04-18T07:50:54.158Z,48.82
2018-04-18T07:52:16.252Z,49.99
2018-04-18T07:53:38.324Z,53.03
2018-04-18T07:55:00.205Z,57.59
2018-04-18T07:56:22.067Z,59.52
2018-04-18T07:57:44.179Z,62.06
2018-04-18T07:59:06.045Z,64.75
2018-04-18T08:00:28.114Z,67.95
2018-04-18T08:01:50.244Z,69.76
2018-04-18T08:03:12.402Z,71.34
2018-04-18T08:04:34.222Z,72.91
2018-04-18T08:05:55.779Z,76.26
2018-04-18T08:07:17.585Z,77.48
2018-04-18T08:08:38.901Z,77.83
2018-04-18T08:10:00.984Z,77.92
2018-04-18T08:11:22.564Z,78.75
2018-04-18T08:12:44.457Z,78.85
2018-04-18T08:14:06.267Z,79.49
2018-04-18T08:15:28.311Z,80.41
2018-04-18T08:16:50.469Z,82.24
2018-04-18T08:18:12.539Z,81.76
2018-04-18T08:19:34.076Z,81.85
2018-04-18T08:20:55.903Z,80.69
2018-04-18T08:22:17.193Z,82.43
2018-04-18T08:23:38.991Z,82.62
2018-04-18T08:25:00.799Z,83.5
2018-04-18T08:26:22.088Z,83.59
2018-04-18T08:27:44.148Z,80.41
2018-04-18T08:29:06.238Z,81.76
2018-04-18T08:30:28.333Z,79.64
2018-04-18T08:31:50.406Z,80.41
2018-04-18T08:33:12.482Z,81.09
2018-04-18T08:34:34.285Z,81.85
2018-04-18T08:35:56.359Z,80.89
2018-04-18T08:37:18.461Z,80.35
2018-04-18T08:38:40.262Z,80.89
2018-04-18T08:40:02.334Z,80.74
2018-04-18T08:41:24.154Z,80.22
2018-04-18T08:42:46.243Z,79.77
2018-04-18T08:44:08.314Z,77.36
2018-04-18T08:45:30.388Z,77.55
2018-04-18T08:46:52.175Z,78.61
2018-04-18T08:48:14.297Z,76.59
2018-04-18T08:49:36.363Z,77.65
2018-04-18T08:50:57.902Z,78.13
2018-04-18T08:52:19.701Z,80.45
2018-04-18T08:53:41.773Z,78.81
2018-04-18T08:55:03.582Z,77.46
2018-04-18T08:56:25.637Z,78.61
2018-04-18T08:57:47.688Z,77.36
2018-04-18T08:59:09.239Z,72.44
2018-04-18T09:00:30.789Z,70.38
2018-04-18T09:01:52.597Z,70.09
2018-04-18T09:03:14.519Z,71.34
2018-04-18T09:04:36.322Z,72.92
2018-04-18T09:05:57.869Z,73.21
2018-04-18T09:07:19.689Z,75.05
2018-04-18T09:08:41.242Z,74.18
2018-04-18T09:10:03.307Z,76.98
2018-04-18T09:11:25.373Z,77.17
2018-04-18T09:12:47.189Z,74.95
2018-04-18T09:14:08.996Z,75.43
2018-04-18T09:15:31.070Z,75.34
2018-04-18T09:16:53.224Z,74.47
2018-04-18T09:18:15.058Z,77.55
2018-04-18T09:19:37.120Z,78.71
2018-04-18T09:20:58.934Z,76.1
2018-04-18T09:22:20.992Z,76.68
2018-04-18T09:23:43.071Z,77.94
2018-04-18T09:25:04.630Z,76.63
2018-04-18T09:26:26.695Z,77.69
2018-04-18T09:27:48.764Z,76.82
2018-04-18T09:29:10.825Z,77.01
2018-04-18T09:30:32.103Z,75.18
2018-04-18T09:31:54.163Z,73.54
2018-04-18T09:33:16.244Z,74.69
2018-04-18T09:34:37.797Z,75.24
2018-04-18T09:35:59.346Z,74.47
2018-04-18T09:37:21.147Z,76.2
2018-04-18T09:38:43.226Z,74.57
2018-04-18T09:40:05.293Z,74.18
2018-04-18T09:41:27.105Z,74.47
2018-04-18T09:42:48.910Z,75.49
2018-04-18T09:44:10.764Z,74.76
2018-04-18T09:45:32.824Z,74.95
2018-04-18T09:46:54.894Z,74.76
2018-04-18T09:48:16.437Z,76.1
2018-04-18T09:49:38.259Z,74.31
2018-04-18T09:51:00.075Z,72.67
2018-04-18T09:52:22.148Z,72.19
2018-04-18T09:53:44.239Z,72.48
2018-04-18T09:55:06.324Z,74.21
2018-04-18T09:56:28.122Z,72.38
2018-04-18T09:57:49.679Z,71.8
2018-04-18T09:59:11.490Z,71.9
2018-04-18T10:00:33.574Z,72.38
2018-04-18T10:01:55.643Z,72.48
2018-04-18T10:03:16.662Z,73.06
2018-04-18T10:04:38.205Z,74.89
2018-04-18T10:06:00.273Z,73.73
2018-04-18T10:07:22.326Z,72.8
2018-04-18T10:08:44.179Z,73.28
2018-04-18T10:10:06.246Z,73.19
2018-04-18T10:11:28.202Z,73.67
2018-04-18T10:12:50.279Z,74.44
2018-04-18T10:14:12.412Z,72.03
2018-04-18T10:15:34.230Z,72.52
2018-04-18T10:16:56.309Z,73.15
2018-04-18T10:18:18.391Z,75.51
2018-04-18T10:19:40.211Z,74.35
2018-04-18T10:21:02.021Z,73.58
2018-04-18T10:22:24.096Z,73.67
2018-04-18T10:23:45.890Z,73.86
2018-04-18T10:25:07.702Z,75.64
2018-04-18T10:26:29.772Z,72.06
2018-04-18T10:27:51.600Z,72.26
2018-04-18T10:29:13.435Z,72.26
2018-04-18T10:30:35.241Z,73.8
2018-04-18T10:31:57.338Z,73.9
2018-04-18T10:33:19.417Z,72.64
2018-04-18T10:34:41.227Z,74.68
2018-04-18T10:36:03.296Z,73.8
2018-04-18T10:37:25.371Z,74
2018-04-18T10:38:47.455Z,71.62
2018-04-18T10:40:09.524Z,70.72
2018-04-18T10:41:31.335Z,71.1
2018-04-18T10:42:53.408Z,71.3
2018-04-18T10:44:15.483Z,72.26
2018-04-18T10:45:37.307Z,72.61
2018-04-18T10:46:59.116Z,72.8
2018-04-18T10:48:21.203Z,71.94
2018-04-18T10:49:43.029Z,73.28
2018-04-18T10:51:04.321Z,73.96
2018-04-18T10:52:26.399Z,71.88
2018-04-18T10:53:47.928Z,71.3
2018-04-18T10:55:09.728Z,71.58
2018-04-18T10:56:31.544Z,72.71
2018-04-18T10:57:53.358Z,72.42
2018-04-18T10:59:15.191Z,72.03
2018-04-18T11:00:37.005Z,72.52
2018-04-18T11:01:58.560Z,72.8
2018-04-18T11:03:20.375Z,72.03
2018-04-18T11:04:42.166Z,73.09
2018-04-18T11:06:04.390Z,72.03
2018-04-18T11:07:26.460Z,72.22
2018-04-18T11:08:48.293Z,72.03
2018-04-18T11:10:09.579Z,71.74
2018-04-18T11:11:31.403Z,71.84
2018-04-18T11:12:53.471Z,71.55
2018-04-18T11:14:15.578Z,71.26
2018-04-18T11:15:37.394Z,71.55
2018-04-18T11:16:59.487Z,71.39
2018-04-18T11:18:21.550Z,70.23
2018-04-18T11:19:43.413Z,71.55
2018-04-18T11:21:05.513Z,72.9
2018-04-18T11:22:27.320Z,72.36
2018-04-18T11:23:49.396Z,72.74
2018-04-18T11:25:11.204Z,71
2018-04-18T11:26:33.321Z,70.23
2018-04-18T11:27:55.402Z,70.62
2018-04-18T11:29:17.532Z,71.06
2018-04-18T11:30:39.608Z,71.45
2018-04-18T11:32:01.679Z,72.22
2018-04-18T11:33:23.745Z,71.64
2018-04-18T11:34:45.827Z,71.64
2018-04-18T11:36:07.639Z,71.88
2018-04-18T11:37:29.710Z,71.74
2018-04-18T11:38:51.249Z,70.81
2018-04-18T11:40:13.089Z,71.2
2018-04-18T11:41:34.967Z,71
2018-04-18T11:42:56.784Z,71.2
2018-04-18T11:44:18.883Z,70.52
2018-04-18T11:45:40.974Z,70.72
2018-04-18T11:47:03.052Z,70.04
2018-04-18T11:48:25.123Z,70.2
2018-04-18T11:49:47.200Z,71.36
2018-04-18T11:51:09.374Z,69.9
2018-04-18T11:52:31.527Z,69.71
2018-04-18T11:53:53.082Z,70.2
2018-04-18T11:55:15.156Z,70.87
2018-04-18T11:56:36.976Z,70
2018-04-18T11:57:58.789Z,70.78
2018-04-18T11:59:20.847Z,71.64
2018-04-18T12:00:42.937Z,71.68
2018-04-18T12:02:04.760Z,71.74
2018-04-18T12:03:26.352Z,71.39
2018-04-18T12:04:48.175Z,71.78
2018-04-18T12:06:09.979Z,70.23
2018-04-18T12:07:32.059Z,69.36
2018-04-18T12:08:53.895Z,68.88
2018-04-18T12:10:15.469Z,70.14
2018-04-18T12:11:37.004Z,71.55
2018-04-18T12:12:58.838Z,70.23
2018-04-18T12:14:20.944Z,69.46
2018-04-18T12:15:43.008Z,68.98
2018-04-18T12:17:05.086Z,68.2
2018-04-18T12:18:26.902Z,68.88
2018-04-18T12:19:48.977Z,68.49
2018-04-18T12:21:10.799Z,68.17
2018-04-18T12:22:32.883Z,68.88
2018-04-18T12:23:54.719Z,68.65
2018-04-18T12:25:16.807Z,69.07
2018-04-18T12:26:38.632Z,68.59
2018-04-18T12:28:00.252Z,69.46
2018-04-18T12:29:22.096Z,68.3
2018-04-18T12:30:44.250Z,67.14
2018-04-18T12:32:06.323Z,67.72
2018-04-18T12:33:28.414Z,69.07
2018-04-18T12:34:50.551Z,69.36
2018-04-18T12:36:12.604Z,69.07
2018-04-18T12:37:34.412Z,67.82
2018-04-18T12:38:56.256Z,68.2
2018-04-18T12:40:18.068Z,68.88
2018-04-18T12:41:39.912Z,68.49
2018-04-18T12:43:01.736Z,69.07
2018-04-18T12:44:23.566Z,68.59
2018-04-18T12:45:45.407Z,68.4
2018-04-18T12:47:07.224Z,68.88
2018-04-18T12:48:29.309Z,69.07
2018-04-18T12:49:51.369Z,67.82
2018-04-18T12:51:13.197Z,68.68
2018-04-18T12:52:34.755Z,69.94
2018-04-18T12:53:56.569Z,70.04
2018-04-18T12:55:18.642Z,68.78
2018-04-18T12:56:40.724Z,68.82
2018-04-18T12:58:02.822Z,68.04
2018-04-18T12:59:24.938Z,68.78
2018-04-18T13:00:47.036Z,69.36
2018-04-18T13:02:09.132Z,67.91
2018-04-18T13:03:30.676Z,68.3
2018-04-18T13:04:52.818Z,68.59
2018-04-18T13:06:14.645Z,68.59
2018-04-18T13:07:36.588Z,69.2
2018-04-18T13:08:58.677Z,69.4
2018-04-18T13:10:20.754Z,68.72
2018-04-18T13:11:42.623Z,69.49
2018-04-18T13:13:04.447Z,69.1
2018-04-18T13:14:26.542Z,68.14
2018-04-18T13:15:48.630Z,68.91
2018-04-18T13:17:10.686Z,68.62
2018-04-18T13:18:31.998Z,69.88
2018-04-18T13:19:54.121Z,68.72
2018-04-18T13:21:16.218Z,68.43
2018-04-18T13:22:38.288Z,68.14
2018-04-18T13:24:00.143Z,69.1
2018-04-18T13:25:22.363Z,68.78
2018-04-18T13:26:44.241Z,69.84
2018-04-18T13:28:06.333Z,68.91
2018-04-18T13:29:28.178Z,68.72
2018-04-18T13:30:50.023Z,68.82
2018-04-18T13:32:12.282Z,68.33
2018-04-18T13:33:34.363Z,70.17
2018-04-18T13:34:56.193Z,69.01
2018-04-18T13:36:18.316Z,68.91
2018-04-18T13:37:40.158Z,68.43
2018-04-18T13:39:02.016Z,68.52
2018-04-18T13:40:23.849Z,67.66
2018-04-18T13:41:45.398Z,68.72
2018-04-18T13:43:07.223Z,68.82
2018-04-18T13:44:29.338Z,67.56
2018-04-18T13:45:51.186Z,66.78
2018-04-18T13:47:13.003Z,67.36
2018-04-18T13:48:35.083Z,67.75
2018-04-18T13:49:56.643Z,67.01
2018-04-18T13:51:18.747Z,66.4
2018-04-18T13:52:40.878Z,67.46
2018-04-18T13:54:02.415Z,67.17
2018-04-18T13:55:24.516Z,67.94
2018-04-18T13:56:46.640Z,67.75
2018-04-18T13:58:08.765Z,68.14
2018-04-18T13:59:30.589Z,67.88
2018-04-18T14:00:52.149Z,67.11
2018-04-18T14:02:14.290Z,67.59
2018-04-18T14:03:36.372Z,68.82
2018-04-18T14:04:58.170Z,68.91
2018-04-18T14:06:20.273Z,68.85
2018-04-18T14:07:42.425Z,65.75
2018-04-18T14:09:04.263Z,66.05
2018-04-18T14:10:26.081Z,67.4
2018-04-18T14:11:48.188Z,65.95
2018-04-18T14:13:10.312Z,66.5
2018-04-18T14:14:32.191Z,66.5
2018-04-18T14:15:54.267Z,67.66
2018-04-18T14:17:16.369Z,67.85
2018-04-18T14:18:38.195Z,67.49
2018-04-18T14:20:00.271Z,68.14
2018-04-18T14:21:22.379Z,69.04
2018-04-18T14:22:44.455Z,68.66
2018-04-18T14:24:06.549Z,67.49
2018-04-18T14:25:28.387Z,68.95
2018-04-18T14:26:50.470Z,67.4
2018-04-18T14:28:12.544Z,65.47
2018-04-18T14:29:34.355Z,65.47
2018-04-18T14:30:56.194Z,65.66
2018-04-18T14:32:18.289Z,67.11
2018-04-18T14:33:40.104Z,67.69
2018-04-18T14:35:02.185Z,66.63
2018-04-18T14:36:24.264Z,66.63
2018-04-18T14:37:46.130Z,66.43
2018-04-18T14:39:08.274Z,66.43
2018-04-18T14:40:30.378Z,65.85
2018-04-18T14:41:52.187Z,66.24
2018-04-18T14:43:14.013Z,65.3
2018-04-18T14:44:35.834Z,66.95
2018-04-18T14:45:57.693Z,66.43
2018-04-18T14:47:19.532Z,66.37
2018-04-18T14:48:41.376Z,65.79
2018-04-18T14:50:03.197Z,64.92
2018-04-18T14:51:25.325Z,65.47
2018-04-18T14:52:47.404Z,65.66
2018-04-18T14:54:09.479Z,65.85
2018-04-18T14:55:31.295Z,67.01
2018-04-18T14:56:53.366Z,66.63
2018-04-18T14:58:14.967Z,66.14
2018-04-18T14:59:37.048Z,66.63
2018-04-18T15:00:59.153Z,67.11
2018-04-18T15:02:20.698Z,66.33
2018-04-18T15:03:42.801Z,66.53
2018-04-18T15:05:04.896Z,67.4
2018-04-18T15:06:26.565Z,67.3
2018-04-18T15:07:48.640Z,66.14
2018-04-18T15:09:09.958Z,65.66
2018-04-18T15:10:32.062Z,66.14
2018-04-18T15:11:54.243Z,66.53
2018-04-18T15:13:16.339Z,66.63
2018-04-18T15:14:38.181Z,66.5
2018-04-18T15:16:00.466Z,66.69
2018-04-18T15:17:22.563Z,66.2
2018-04-18T15:18:44.373Z,66.4
2018-04-18T15:20:06.466Z,66.4
2018-04-18T15:21:28.562Z,66.2
2018-04-18T15:22:50.150Z,66.88
2018-04-18T15:24:11.970Z,66.88
2018-04-18T15:25:34.045Z,67.17
2018-04-18T15:26:56.127Z,66.59
2018-04-18T15:28:17.980Z,67.08
2018-04-18T15:29:40.198Z,67.36
2018-04-18T15:31:02.041Z,67.46
2018-04-18T15:32:23.886Z,66.98
2018-04-18T15:33:45.781Z,66.59
2018-04-18T15:35:07.623Z,66.59
2018-04-18T15:36:29.702Z,66.5
2018-04-18T15:37:51.279Z,67.56
2018-04-18T15:39:13.084Z,67.08
2018-04-18T15:40:34.930Z,67.17
2018-04-18T15:41:57.056Z,66.59
2018-04-18T15:43:19.169Z,66.98
2018-04-18T15:44:41.310Z,67.08
2018-04-18T15:46:03.454Z,66.94
2018-04-18T15:47:25.306Z,66.85
2018-04-18T15:48:47.391Z,66.46
2018-04-18T15:50:09.476Z,67.52
2018-04-18T15:51:31.352Z,67.52
2018-04-18T15:52:53.182Z,68.01
2018-04-18T15:54:15.276Z,67.75
2018-04-18T15:55:36.845Z,66.88
2018-04-18T15:56:58.444Z,66.36
2018-04-18T15:58:20.525Z,66.4
2018-04-18T15:59:42.376Z,66.46
2018-04-18T16:01:04.495Z,66.46
2018-04-18T16:02:26.064Z,66.27
2018-04-18T16:03:47.625Z,66.11
2018-04-18T16:05:09.192Z,66.46
2018-04-18T16:06:31.004Z,67.14
2018-04-18T16:07:53.146Z,66.85
2018-04-18T16:09:15.226Z,66.94
2018-04-18T16:10:37.052Z,67.52
2018-04-18T16:11:59.134Z,66.11
2018-04-18T16:13:21.245Z,65.63
2018-04-18T16:14:43.354Z,65.5
2018-04-18T16:16:05.198Z,65.69
2018-04-18T16:17:27.295Z,65.3
2018-04-18T16:18:48.620Z,65.11
2018-04-18T16:20:10.682Z,65.5
2018-04-18T16:21:32.764Z,65.78
2018-04-18T16:22:54.857Z,65.98
2018-04-18T16:24:16.952Z,65.78
2018-04-18T16:25:39.093Z,66.27
2018-04-18T16:27:01.245Z,67.14
2018-04-18T16:28:23.085Z,67.24
2018-04-18T16:29:45.198Z,66.46
2018-04-18T16:31:07.293Z,66.46
2018-04-18T16:32:28.892Z,67.14
2018-04-18T16:33:51.058Z,66.27
2018-04-18T16:35:12.640Z,64.72
2018-04-18T16:36:34.751Z,64.53
2018-04-18T16:37:56.586Z,64.34
2018-04-18T16:39:18.449Z,65.17
2018-04-18T16:40:40.573Z,64.21
2018-04-18T16:42:02.670Z,64.11
2018-04-18T16:43:24.536Z,64.4
2018-04-18T16:44:46.080Z,64.34
2018-04-18T16:46:07.924Z,64.79
2018-04-18T16:47:30.031Z,63.92
2018-04-18T16:48:52.131Z,64.59
2018-04-18T16:50:14.236Z,64.89
2018-04-18T16:51:36.089Z,64.31
2018-04-18T16:52:58.172Z,64.5
2018-04-18T16:54:20.253Z,63.63
2018-04-18T16:55:41.852Z,63.34
2018-04-18T16:57:03.691Z,62.86
2018-04-18T16:58:25.884Z,63.05
2018-04-18T16:59:47.971Z,63.7
2018-04-18T17:01:10.054Z,63.34
2018-04-18T17:02:31.888Z,62.76
2018-04-18T17:03:53.742Z,62.76
2018-04-18T17:05:15.824Z,63.34
2018-04-18T17:06:37.990Z,64.08
2018-04-18T17:08:00.426Z,63.31
2018-04-18T17:09:22.382Z,63.21
2018-04-18T17:10:44.289Z,63.31
2018-04-18T17:12:06.452Z,63.7
2018-04-18T17:13:28.552Z,64.08
2018-04-18T17:14:50.115Z,64.47
2018-04-18T17:16:12.218Z,64.66
2018-04-18T17:17:34.315Z,64.76
2018-04-18T17:18:56.423Z,64.66
2018-04-18T17:20:18.578Z,64.66
2018-04-18T17:21:40.538Z,65.63
2018-04-18T17:23:02.361Z,65.59
2018-04-18T17:24:23.672Z,65.88
2018-04-18T17:25:45.548Z,65.78
2018-04-18T17:27:07.758Z,66.08
2018-04-18T17:28:29.602Z,65.5
2018-04-18T17:29:51.430Z,64.34
2018-04-18T17:31:13.525Z,64.92
2018-04-18T17:32:35.633Z,64.63
2018-04-18T17:33:57.818Z,65.5
2018-04-18T17:35:19.396Z,65.3
2018-04-18T17:36:41.255Z,65.69
2018-04-18T17:38:03.342Z,66.36